createdAt,value
2018-08-17T00:01:31.995Z,47.90
2018-08-17T00:04:00.564Z,48.54
2018-08-17T00:06:29.147Z,48.67
2018-08-17T00:08:57.839Z,49.09
2018-08-17T00:11:26.448Z,49.35
2018-08-17T00:13:55.055Z,48.83
2018-08-17T00:16:24.036Z,49.73
2018-08-17T00:18:52.592Z,50.03
2018-08-17T00:21:21.171Z,50.37
2018-08-17T00:23:49.794Z,49.95
2018-08-17T00:26:18.384Z,50.51
2018-08-17T00:28:46.944Z,50.80
2018-08-17T00:31:16.140Z,51.10
2018-08-17T00:33:45.186Z,50.93
2018-08-17T00:36:13.767Z,50.50
2018-08-17T00:38:42.474Z,50.66
2018-08-17T00:41:11.056Z,50.35
2018-08-17T00:43:39.620Z,50.98
2018-08-17T00:46:09.223Z,50.93
2018-08-17T00:48:37.780Z,50.53
2018-08-17T00:51:07.081Z,50.81
2018-08-17T00:53:35.687Z,50.63
2018-08-17T00:56:04.361Z,49.71
2018-08-17T00:58:33.001Z,50.18
2018-08-17T01:01:01.719Z,48.86
2018-08-17T01:03:30.726Z,49.66
2018-08-17T01:05:59.320Z,48.95
2018-08-17T01:08:28.055Z,49.29
2018-08-17T01:10:56.660Z,48.54
2018-08-17T01:13:25.255Z,48.52
2018-08-17T01:15:53.887Z,48.38
2018-08-17T01:18:22.460Z,48.82
2018-08-17T01:20:51.070Z,48.50
2018-08-17T01:23:19.801Z,48.82
2018-08-17T01:25:48.379Z,48.73
2018-08-17T01:28:17.082Z,49.52
2018-08-17T01:30:45.679Z,49.52
2018-08-17T01:33:14.250Z,49.54
2018-08-17T01:35:42.807Z,49.04
2018-08-17T01:38:11.420Z,49.20
2018-08-17T01:40:39.987Z,48.90
2018-08-17T01:43:08.592Z,48.50
2018-08-17T01:45:37.231Z,49.23
2018-08-17T01:48:05.919Z,48.99
2018-08-17T01:50:34.566Z,48.71
2018-08-17T01:53:03.247Z,48.68
2018-08-17T01:55:32.148Z,49.26
2018-08-17T01:58:00.700Z,49.67
2018-08-17T02:00:29.668Z,49.13
2018-08-17T02:02:58.243Z,49.54
2018-08-17T02:05:26.856Z,49.73
2018-08-17T02:07:55.472Z,50.09
2018-08-17T02:10:24.096Z,49.90
2018-08-17T02:12:52.699Z,50.38
2018-08-17T02:15:21.352Z,49.84
2018-08-17T02:17:49.963Z,49.82
2018-08-17T02:20:18.555Z,50.63
2018-08-17T02:22:47.155Z,50.24
2018-08-17T02:25:15.719Z,50.45
2018-08-17T02:27:44.299Z,49.84
2018-08-17T02:30:13.208Z,50.30
2018-08-17T02:32:41.789Z,50.00
2018-08-17T02:35:10.392Z,50.12
2018-08-17T02:37:38.982Z,50.10
2018-08-17T02:40:07.560Z,50.41
2018-08-17T02:42:36.119Z,50.57
2018-08-17T02:45:06.044Z,50.51
2018-08-17T02:47:34.627Z,50.39
2018-08-17T02:50:03.226Z,50.21
2018-08-17T02:52:31.986Z,50.18
2018-08-17T02:55:00.549Z,50.55
2018-08-17T02:57:29.123Z,51.00
2018-08-17T02:59:57.826Z,51.11
2018-08-17T03:02:26.492Z,50.44
2018-08-17T03:04:55.061Z,51.23
2018-08-17T03:07:23.745Z,51.15
2018-08-17T03:09:52.318Z,50.64
2018-08-17T03:12:20.888Z,50.69
2018-08-17T03:14:49.598Z,51.26
2018-08-17T03:17:18.174Z,50.77
2018-08-17T03:19:46.724Z,50.99
2018-08-17T03:22:15.339Z,51.28
2018-08-17T03:24:43.924Z,50.68
2018-08-17T03:27:12.484Z,50.45
2018-08-17T03:29:41.083Z,50.69
2018-08-17T03:32:09.631Z,51.21
2018-08-17T03:34:38.195Z,50.91
2018-08-17T03:37:07.159Z,50.89
2018-08-17T03:39:35.845Z,50.23
2018-08-17T03:42:04.544Z,50.10
2018-08-17T03:44:33.176Z,50.50
2018-08-17T03:47:01.776Z,50.46
2018-08-17T03:49:30.310Z,51.03
2018-08-17T03:51:59.291Z,51.11
2018-08-17T03:54:27.878Z,50.48
2018-08-17T03:56:56.455Z,50.45
2018-08-17T03:59:25.176Z,50.69
2018-08-17T04:01:53.731Z,50.75
2018-08-17T04:04:22.303Z,50.34
2018-08-17T04:06:50.867Z,50.19
2018-08-17T04:09:19.429Z,50.14
2018-08-17T04:11:48.014Z,50.26
2018-08-17T04:14:16.918Z,49.99
2018-08-17T04:16:45.511Z,50.08
2018-08-17T04:19:14.056Z,50.39
2018-08-17T04:21:42.656Z,50.80
2018-08-17T04:24:11.329Z,51.05
2018-08-17T04:26:39.859Z,51.37
2018-08-17T04:29:08.464Z,51.04
2018-08-17T04:31:37.028Z,51.13
2018-08-17T04:34:05.631Z,50.70
2018-08-17T04:36:34.243Z,50.94
2018-08-17T04:39:02.973Z,51.05
2018-08-17T04:41:31.556Z,50.35
2018-08-17T04:44:00.143Z,51.14
2018-08-17T04:46:28.708Z,50.57
2018-08-17T04:48:57.280Z,50.70
2018-08-17T04:51:25.888Z,51.20
2018-08-17T04:53:54.456Z,50.68
2018-08-17T04:56:23.046Z,50.66
2018-08-17T04:58:51.639Z,51.44
2018-08-17T05:01:20.208Z,51.13
2018-08-17T05:03:48.760Z,50.42
2018-08-17T05:06:17.396Z,51.27
2018-08-17T05:08:45.951Z,50.48
2018-08-17T05:11:14.511Z,50.79
2018-08-17T05:13:43.108Z,50.16
2018-08-17T05:16:11.695Z,50.90
2018-08-17T05:18:40.239Z,50.77
2018-08-17T05:21:08.919Z,50.13
2018-08-17T05:23:37.516Z,50.20
2018-08-17T05:26:06.228Z,50.20
2018-08-17T05:28:34.840Z,50.38
2018-08-17T05:31:03.429Z,50.46
2018-08-17T05:33:32.025Z,50.33
2018-08-17T05:36:00.924Z,49.63
2018-08-17T05:38:29.575Z,49.74
2018-08-17T05:40:58.188Z,49.77
2018-08-17T05:43:26.789Z,48.95
2018-08-17T05:45:55.359Z,49.05
2018-08-17T05:48:23.940Z,48.62
2018-08-17T05:50:52.643Z,48.71
2018-08-17T05:53:21.196Z,47.51
2018-08-17T05:55:49.809Z,47.22
2018-08-17T05:58:18.455Z,47.47
2018-08-17T06:00:47.107Z,46.96
2018-08-17T06:03:15.709Z,46.77
2018-08-17T06:05:44.304Z,46.73
2018-08-17T06:08:12.892Z,46.64
2018-08-17T06:10:41.464Z,46.17
2018-08-17T06:13:10.096Z,46.44
2018-08-17T06:15:38.715Z,45.75
2018-08-17T06:18:07.337Z,45.40
2018-08-17T06:20:35.927Z,45.67
2018-08-17T06:23:04.548Z,45.45
2018-08-17T06:25:33.131Z,44.98
2018-08-17T06:28:02.082Z,44.66
2018-08-17T06:30:30.665Z,44.18
2018-08-17T06:32:59.250Z,43.64
2018-08-17T06:35:27.981Z,43.06
2018-08-17T06:37:56.620Z,42.48
2018-08-17T06:40:25.196Z,41.90
2018-08-17T06:42:53.915Z,41.43
2018-08-17T06:45:22.499Z,40.53
2018-08-17T06:47:51.123Z,39.75
2018-08-17T06:50:19.758Z,40.25
2018-08-17T06:52:48.339Z,39.13
2018-08-17T06:55:16.908Z,37.99
2018-08-17T06:57:45.511Z,38.13
2018-08-17T07:00:16.024Z,38.14
2018-08-17T07:02:45.844Z,36.75
2018-08-17T07:05:14.759Z,36.92
2018-08-17T07:07:43.688Z,35.64
2018-08-17T07:10:13.671Z,35.38
2018-08-17T07:12:42.850Z,34.53
2018-08-17T07:15:11.583Z,33.43
2018-08-17T07:17:41.061Z,32.49
2018-08-17T07:20:11.557Z,32.84
2018-08-17T07:22:40.367Z,32.81
2018-08-17T07:25:09.578Z,32.65
2018-08-17T07:27:38.567Z,33.36
2018-08-17T07:30:08.659Z,32.72
2018-08-17T07:32:37.227Z,32.61
2018-08-17T07:35:07.459Z,32.47
2018-08-17T07:37:36.407Z,31.77
2018-08-17T07:40:05.052Z,31.14
2018-08-17T07:42:33.634Z,30.94
2018-08-17T07:45:02.299Z,30.75
2018-08-17T07:47:30.898Z,30.34
2018-08-17T07:49:59.476Z,29.62
2018-08-17T07:52:28.405Z,29.60
2018-08-17T07:54:56.976Z,29.78
2018-08-17T07:57:25.589Z,29.10
2018-08-17T07:59:54.272Z,29.20
2018-08-17T08:02:22.836Z,29.67
2018-08-17T08:04:51.429Z,29.65
2018-08-17T08:07:20.062Z,29.49
2018-08-17T08:09:48.636Z,28.63
2018-08-17T08:12:17.211Z,27.94
2018-08-17T08:14:45.812Z,28.19
2018-08-17T08:17:14.400Z,28.54
2018-08-17T08:19:42.964Z,27.46
2018-08-17T08:22:11.630Z,27.29
2018-08-17T08:24:40.309Z,27.04
2018-08-17T08:27:09.160Z,26.34
2018-08-17T08:29:37.767Z,25.63
2018-08-17T08:32:06.386Z,25.68
2018-08-17T08:34:34.952Z,26.86
2018-08-17T08:37:03.556Z,26.95
2018-08-17T08:39:32.132Z,26.13
2018-08-17T08:42:00.752Z,25.60
2018-08-17T08:44:29.428Z,25.42
2018-08-17T08:46:58.012Z,24.72
2018-08-17T08:49:26.596Z,24.78
2018-08-17T08:51:55.215Z,25.70
2018-08-17T08:54:23.801Z,25.34
2018-08-17T08:56:52.360Z,25.27
2018-08-17T08:59:21.311Z,25.60
2018-08-17T09:01:49.960Z,26.13
2018-08-17T09:04:18.592Z,25.81
2018-08-17T09:06:47.200Z,26.12
2018-08-17T09:09:15.757Z,24.63
2018-08-17T09:11:44.342Z,25.07
2018-08-17T09:14:13.034Z,25.30
2018-08-17T09:16:41.618Z,25.01
2018-08-17T09:19:10.183Z,24.79
2018-08-17T09:21:38.874Z,23.33
2018-08-17T09:24:07.517Z,23.77
2018-08-17T09:26:36.083Z,24.26
2018-08-17T09:29:05.232Z,23.69
2018-08-17T09:31:33.859Z,23.34
2018-08-17T09:34:02.412Z,24.10
2018-08-17T09:36:31.303Z,25.11
2018-08-17T09:38:59.872Z,26.21
2018-08-17T09:41:28.440Z,26.82
2018-08-17T09:43:57.367Z,27.41
2018-08-17T09:46:25.952Z,28.46
2018-08-17T09:48:54.783Z,29.01
2018-08-17T09:51:23.544Z,26.74
2018-08-17T09:53:52.063Z,26.51
2018-08-17T09:56:20.630Z,26.43
2018-08-17T09:58:49.479Z,26.64
2018-08-17T10:01:23.292Z,25.73
2018-08-17T10:03:57.543Z,25.58
2018-08-17T10:06:31.407Z,24.96
2018-08-17T10:10:07.484Z,24.43
2018-08-17T10:12:36.096Z,23.16
2018-08-17T10:15:04.831Z,23.19
2018-08-17T10:17:33.432Z,24.14
2018-08-17T10:20:02.016Z,24.27
2018-08-17T10:22:30.613Z,24.16
2018-08-17T10:25:06.283Z,23.12
2018-08-17T10:27:34.844Z,23.01
2018-08-17T10:30:03.419Z,23.63
2018-08-17T10:32:35.488Z,23.99
2018-08-17T10:35:04.997Z,23.73
2018-08-17T10:37:33.580Z,22.67
2018-08-17T10:40:02.473Z,23.75
2018-08-17T10:42:31.051Z,24.44
2018-08-17T10:44:59.612Z,25.65
2018-08-17T10:47:28.259Z,25.39
2018-08-17T10:49:58.955Z,25.20
2018-08-17T10:52:27.544Z,25.57
2018-08-17T10:54:56.152Z,25.64
2018-08-17T10:57:24.807Z,26.96
2018-08-17T10:59:53.427Z,28.85
2018-08-17T11:02:22.015Z,28.69
2018-08-17T11:04:50.635Z,28.96
2018-08-17T11:07:23.948Z,28.81
2018-08-17T11:09:52.864Z,29.54
2018-08-17T11:12:21.472Z,29.03
2018-08-17T11:14:50.324Z,29.44
2018-08-17T11:17:18.908Z,28.88
2018-08-17T11:19:47.491Z,29.37
2018-08-17T11:22:17.204Z,28.87
2018-08-17T11:24:45.828Z,27.26
2018-08-17T11:27:14.435Z,26.71
2018-08-17T11:29:43.060Z,23.89
2018-08-17T11:32:11.825Z,22.74
2018-08-17T11:34:40.535Z,20.32
2018-08-17T11:37:09.181Z,19.73
2018-08-17T11:39:41.550Z,18.22
2018-08-17T11:42:10.180Z,18.08
2018-08-17T11:44:38.741Z,18.31
2018-08-17T11:47:07.387Z,17.72
2018-08-17T11:49:36.144Z,18.68
2018-08-17T11:52:04.741Z,19.53
2018-08-17T11:54:33.319Z,20.66
2018-08-17T11:57:01.945Z,21.25
2018-08-17T11:59:30.556Z,22.22
2018-08-17T12:01:59.268Z,22.67
2018-08-17T12:04:27.977Z,22.71
2018-08-17T12:06:56.611Z,23.49
2018-08-17T12:09:25.212Z,23.83
2018-08-17T12:11:54.908Z,23.32
2018-08-17T12:14:23.600Z,24.19
2018-08-17T12:16:52.207Z,24.47
2018-08-17T12:19:20.824Z,24.06
2018-08-17T12:21:49.399Z,24.46
2018-08-17T12:24:18.088Z,23.91
2018-08-17T12:26:52.750Z,24.97
2018-08-17T12:29:21.328Z,25.69
2018-08-17T12:31:50.352Z,25.26
2018-08-17T12:34:19.293Z,25.33
2018-08-17T12:36:47.853Z,24.99
2018-08-17T12:39:16.436Z,25.26
2018-08-17T12:41:45.025Z,24.24
2018-08-17T12:44:13.628Z,24.76
2018-08-17T12:46:42.168Z,24.16
2018-08-17T12:49:10.759Z,24.23
2018-08-17T12:51:39.357Z,24.77
2018-08-17T12:54:10.312Z,23.80
2018-08-17T12:56:38.909Z,24.69
2018-08-17T12:59:07.499Z,24.70
2018-08-17T13:01:36.140Z,24.44
2018-08-17T13:04:04.715Z,23.55
2018-08-17T13:06:33.332Z,23.64
2018-08-17T13:09:02.044Z,23.70
2018-08-17T13:11:30.659Z,23.20
2018-08-17T13:14:03.405Z,23.69
2018-08-17T13:16:31.997Z,23.41
2018-08-17T13:19:00.571Z,23.09
2018-08-17T13:21:29.204Z,22.31
2018-08-17T13:23:57.773Z,23.04
2018-08-17T13:26:26.373Z,23.59
2018-08-17T13:28:55.076Z,23.52
2018-08-17T13:31:23.780Z,24.40
2018-08-17T13:33:52.386Z,24.82
2018-08-17T13:36:21.071Z,24.78
2018-08-17T13:38:49.678Z,24.82
2018-08-17T13:41:18.289Z,24.94
2018-08-17T13:43:47.187Z,24.20
2018-08-17T13:46:16.153Z,24.33
2018-08-17T13:48:45.108Z,23.96
2018-08-17T13:51:13.828Z,23.42
2018-08-17T13:53:42.402Z,23.21
2018-08-17T13:56:10.995Z,22.62
2018-08-17T13:58:39.916Z,23.20
2018-08-17T14:01:08.548Z,22.95
2018-08-17T14:03:37.136Z,23.81
2018-08-17T14:06:06.392Z,22.87
2018-08-17T14:08:34.956Z,23.19
2018-08-17T14:11:03.515Z,23.02
2018-08-17T14:13:32.145Z,23.59
2018-08-17T14:16:00.700Z,23.38
2018-08-17T14:18:29.283Z,23.86
2018-08-17T14:20:57.880Z,24.07
2018-08-17T14:23:26.439Z,23.41
2018-08-17T14:25:55.032Z,25.02
2018-08-17T14:28:23.707Z,23.93
2018-08-17T14:30:52.276Z,24.31
2018-08-17T14:33:20.821Z,24.41
2018-08-17T14:35:49.447Z,23.82
2018-08-17T14:38:28.920Z,24.02
2018-08-17T14:40:57.844Z,25.04
2018-08-17T14:43:27.004Z,24.50
2018-08-17T14:45:55.588Z,24.95
2018-08-17T14:48:24.615Z,23.84
2018-08-17T14:50:53.264Z,25.09
2018-08-17T14:53:21.863Z,24.73
2018-08-17T14:55:50.617Z,25.13
2018-08-17T14:58:19.179Z,25.60
2018-08-17T15:00:47.779Z,25.75
2018-08-17T15:03:16.512Z,25.42
2018-08-17T15:05:45.131Z,25.50
2018-08-17T15:08:13.780Z,25.88
2018-08-17T15:10:42.709Z,25.50
2018-08-17T15:13:11.358Z,25.96
2018-08-17T15:15:39.907Z,29.63
2018-08-17T15:18:08.536Z,30.69
2018-08-17T15:20:37.132Z,30.96
2018-08-17T15:23:05.818Z,31.24
2018-08-17T15:25:34.440Z,31.47
2018-08-17T15:28:03.024Z,31.86
2018-08-17T15:30:31.633Z,32.25
2018-08-17T15:33:00.251Z,32.46
2018-08-17T15:35:28.847Z,32.45
2018-08-17T15:37:57.452Z,32.63
2018-08-17T15:40:26.132Z,33.10
2018-08-17T15:43:03.722Z,33.09
2018-08-17T15:45:32.548Z,32.91
2018-08-17T15:48:01.116Z,33.35
2018-08-17T15:50:29.679Z,33.53
2018-08-17T15:52:58.496Z,33.41
2018-08-17T15:55:27.092Z,33.56
2018-08-17T15:57:55.693Z,34.06
2018-08-17T16:00:24.405Z,33.65
2018-08-17T16:02:52.996Z,33.65
2018-08-17T16:05:21.608Z,33.85
2018-08-17T16:07:50.340Z,33.99
2018-08-17T16:10:19.001Z,33.45
2018-08-17T16:12:47.571Z,33.97
2018-08-17T16:15:16.195Z,34.04
2018-08-17T16:17:44.763Z,33.69
2018-08-17T16:20:13.973Z,34.08
2018-08-17T16:22:43.443Z,33.52
2018-08-17T16:25:12.978Z,33.77
2018-08-17T16:27:42.538Z,33.42
2018-08-17T16:30:13.296Z,33.78
2018-08-17T16:32:41.954Z,33.04
2018-08-17T16:35:10.684Z,32.81
2018-08-17T16:37:44.081Z,32.15
2018-08-17T16:40:12.665Z,33.12
2018-08-17T16:42:41.248Z,33.37
2018-08-17T16:45:10.429Z,34.26
2018-08-17T16:47:39.020Z,34.40
2018-08-17T16:50:09.472Z,35.01
2018-08-17T16:52:38.194Z,34.79
2018-08-17T16:55:06.784Z,35.11
2018-08-17T16:57:35.589Z,35.11
2018-08-17T17:00:04.985Z,34.84
2018-08-17T17:02:33.544Z,34.87
2018-08-17T17:05:02.263Z,34.09
2018-08-17T17:07:32.005Z,34.06
2018-08-17T17:10:01.123Z,33.97
2018-08-17T17:12:29.771Z,33.96
2018-08-17T17:15:35.728Z,32.74
2018-08-17T17:18:08.328Z,33.40
2018-08-17T17:20:38.322Z,33.13
2018-08-17T17:23:09.339Z,33.11
2018-08-17T17:25:37.995Z,34.21
2018-08-17T17:28:07.327Z,33.97
2018-08-17T17:30:47.386Z,34.18
2018-08-17T17:33:16.002Z,33.67
2018-08-17T17:35:45.020Z,34.56
2018-08-17T17:38:13.887Z,34.83
2018-08-17T17:40:42.911Z,34.73
2018-08-17T17:43:11.601Z,34.67
2018-08-17T17:45:41.028Z,34.68
2018-08-17T17:48:10.195Z,35.26
2018-08-17T17:50:38.864Z,35.17
2018-08-17T17:53:07.691Z,35.08
2018-08-17T17:55:49.162Z,36.05
2018-08-17T17:58:18.159Z,36.39
2018-08-17T18:00:59.020Z,37.50
2018-08-17T18:03:29.924Z,37.96
2018-08-17T18:06:07.564Z,37.87
2018-08-17T18:08:36.355Z,37.66
2018-08-17T18:11:04.943Z,38.32
2018-08-17T18:13:33.509Z,38.83
2018-08-17T18:16:02.448Z,38.90
2018-08-17T18:18:31.204Z,38.79
2018-08-17T18:20:59.831Z,39.46
2018-08-17T18:23:28.583Z,39.38
2018-08-17T18:25:57.255Z,39.66
2018-08-17T18:28:25.824Z,39.24
2018-08-17T18:30:54.448Z,38.91
2018-08-17T18:33:23.059Z,38.78
2018-08-17T18:35:51.620Z,38.99
2018-08-17T18:38:20.315Z,38.13
2018-08-17T18:40:48.908Z,38.18
2018-08-17T18:43:17.471Z,38.70
2018-08-17T18:45:46.372Z,37.85
2018-08-17T18:48:14.932Z,38.54
2018-08-17T18:50:43.503Z,38.27
2018-08-17T18:53:12.208Z,38.43
2018-08-17T18:55:40.783Z,38.79
2018-08-17T18:58:09.340Z,38.84
2018-08-17T19:00:37.985Z,38.67
2018-08-17T19:03:06.633Z,38.92
2018-08-17T19:05:35.204Z,39.12
2018-08-17T19:08:03.808Z,38.72
2018-08-17T19:10:32.454Z,39.58
2018-08-17T19:13:00.943Z,38.78
2018-08-17T19:15:30.993Z,39.34
2018-08-17T19:17:59.614Z,38.58
2018-08-17T19:20:28.212Z,38.79
2018-08-17T19:22:56.843Z,39.61
2018-08-17T19:25:25.421Z,39.05
2018-08-17T19:27:53.983Z,39.42
2018-08-17T19:30:27.892Z,40.20
2018-08-17T19:32:57.604Z,40.26
2018-08-17T19:35:26.200Z,39.86
2018-08-17T19:37:54.859Z,39.94
2018-08-17T19:40:23.740Z,39.79
2018-08-17T19:42:52.382Z,40.25
2018-08-17T19:45:21.714Z,40.02
2018-08-17T19:47:50.716Z,39.94
2018-08-17T19:50:19.305Z,40.30
2018-08-17T19:52:48.041Z,40.88
2018-08-17T19:55:16.706Z,41.13
2018-08-17T19:57:45.317Z,40.95
2018-08-17T20:00:14.547Z,41.76
2018-08-17T20:02:43.196Z,42.04
2018-08-17T20:05:11.859Z,41.78
2018-08-17T20:07:40.594Z,41.84
2018-08-17T20:10:11.358Z,42.04
2018-08-17T20:12:40.119Z,42.56
2018-08-17T20:15:09.209Z,43.17
2018-08-17T20:17:38.428Z,43.50
2018-08-17T20:20:11.522Z,43.47
2018-08-17T20:22:40.076Z,43.51
2018-08-17T20:25:13.038Z,44.18
2018-08-17T20:27:41.708Z,44.21
2018-08-17T20:30:15.572Z,44.61
2018-08-17T20:32:44.576Z,44.06
2018-08-17T20:35:13.184Z,44.53
2018-08-17T20:37:46.009Z,44.98
2018-08-17T20:40:14.904Z,45.14
2018-08-17T20:42:43.475Z,45.80
2018-08-17T20:45:12.426Z,45.44
2018-08-17T20:47:42.022Z,46.36
2018-08-17T20:50:13.043Z,46.22
2018-08-17T20:53:01.503Z,46.14
2018-08-17T20:55:30.132Z,46.75
2018-08-17T20:57:59.467Z,46.36
2018-08-17T21:00:29.792Z,46.41
2018-08-17T21:02:58.344Z,47.13
2018-08-17T21:05:26.949Z,46.89
2018-08-17T21:07:55.551Z,46.94
2018-08-17T21:10:24.124Z,47.32
2018-08-17T21:12:52.692Z,47.02
2018-08-17T21:15:21.475Z,47.51
2018-08-17T21:17:50.115Z,47.22
2018-08-17T21:20:18.728Z,47.12
2018-08-17T21:22:47.352Z,47.19
2018-08-17T21:25:15.951Z,47.44
2018-08-17T21:27:44.549Z,47.23
2018-08-17T21:30:13.178Z,47.20
2018-08-17T21:32:41.787Z,47.24
2018-08-17T21:35:10.379Z,47.54
2018-08-17T21:37:39.131Z,47.49
2018-08-17T21:40:14.644Z,47.57
2018-08-17T21:42:43.360Z,47.85
2018-08-17T21:45:11.980Z,48.20
2018-08-17T21:47:40.567Z,48.37
2018-08-17T21:50:13.795Z,49.52
2018-08-17T21:52:43.687Z,50.66
2018-08-17T21:55:12.340Z,52.34
2018-08-17T21:57:41.052Z,53.33
2018-08-17T22:00:22.101Z,53.91
2018-08-17T22:02:50.912Z,53.68
2018-08-17T22:05:25.531Z,53.94
2018-08-17T22:07:54.124Z,52.45
2018-08-17T22:10:22.759Z,53.06
2018-08-17T22:12:51.379Z,52.70
2018-08-17T22:15:20.096Z,52.55
2018-08-17T22:17:48.712Z,52.72
2018-08-17T22:20:17.293Z,52.94
2018-08-17T22:22:45.915Z,53.29
2018-08-17T22:25:16.611Z,54.71
2018-08-17T22:27:45.287Z,54.90
2018-08-17T22:30:20.607Z,55.56
2018-08-17T22:32:49.299Z,56.41
2018-08-17T22:35:18.323Z,55.76
2018-08-17T22:37:46.909Z,55.70
2018-08-17T22:40:15.556Z,56.02
2018-08-17T22:42:46.820Z,56.04
2018-08-17T22:45:15.388Z,55.91
2018-08-17T22:47:44.001Z,56.81
2018-08-17T22:50:12.599Z,55.87
2018-08-17T22:52:41.215Z,55.12
2018-08-17T22:55:10.348Z,55.46
2018-08-17T22:57:38.980Z,55.22
2018-08-17T23:00:17.104Z,54.94
2018-08-17T23:02:46.775Z,54.81
2018-08-17T23:05:17.936Z,54.19
2018-08-17T23:07:46.555Z,53.75
2018-08-17T23:10:17.230Z,54.56
2018-08-17T23:12:47.156Z,54.32
2018-08-17T23:15:15.807Z,54.05
2018-08-17T23:17:47.185Z,54.02
2018-08-17T23:20:16.231Z,54.46
2018-08-17T23:22:51.740Z,54.24
2018-08-17T23:25:20.344Z,53.92
2018-08-17T23:27:49.589Z,53.76
2018-08-17T23:30:18.608Z,53.54
2018-08-17T23:32:47.783Z,53.83
2018-08-17T23:35:16.368Z,53.77
2018-08-17T23:37:45.289Z,54.61
2018-08-17T23:40:13.939Z,54.24
2018-08-17T23:42:42.586Z,54.52
2018-08-17T23:45:13.374Z,53.96
2018-08-17T23:47:41.988Z,54.56
2018-08-17T23:50:11.863Z,54.09
2018-08-17T23:52:40.570Z,54.34
2018-08-17T23:55:12.133Z,55.03
2018-08-17T23:57:40.760Z,54.42
